Time;durP1;ratioP1;P1;durP2;ratioP2;P2;SDS_P1;SDS_P2;PMS_P1;PMS_P2;Temp;Humidity;BMP_temperature;BMP_pressure;BME280_temperature;BME280_humidity;BME280_pressure;Samples;Min_cycle;Max_cycle;Signal;HPM_P1;HPM_P2
2020/12/20 00:01:17;;;;;;;0.60;0.60;;;2.10;99.90;;;;;;5109351;28;20173;-68
2020/12/20 00:03:45;;;;;;;0.73;0.73;;;2.10;99.90;;;;;;5109957;28;20163;-69
2020/12/20 00:06:11;;;;;;;1.55;1.10;;;2.10;99.90;;;;;;5110381;28;20203;-69
2020/12/20 00:08:37;;;;;;;0.15;0.15;;;2.10;99.90;;;;;;5110152;28;20166;-68
2020/12/20 00:11:03;;;;;;;0.98;0.98;;;2.20;99.90;;;;;;5110399;28;20171;-68
2020/12/20 00:13:29;;;;;;;0.63;0.63;;;2.20;99.90;;;;;;5109046;28;20191;-68
2020/12/20 00:15:55;;;;;;;0.57;0.57;;;2.30;99.90;;;;;;5110213;28;20187;-68
2020/12/20 00:18:21;;;;;;;0.50;0.25;;;2.30;99.90;;;;;;5110261;28;20193;-68
2020/12/20 00:20:47;;;;;;;0.20;0.20;;;2.30;99.90;;;;;;5110244;28;20155;-68
2020/12/20 00:23:12;;;;;;;0.47;0.47;;;2.30;99.90;;;;;;5108863;28;20171;-68
2020/12/20 00:25:38;;;;;;;0.52;0.52;;;2.20;99.90;;;;;;5110090;28;20187;-68
2020/12/20 00:28:04;;;;;;;0.60;0.60;;;2.20;99.90;;;;;;5110102;28;20175;-68
2020/12/20 00:30:30;;;;;;;0.43;0.43;;;2.20;99.90;;;;;;5110020;28;20151;-68
2020/12/20 00:32:56;;;;;;;0.47;0.47;;;2.20;99.90;;;;;;5109960;28;20155;-68
2020/12/20 00:35:22;;;;;;;0.10;0.10;;;2.10;99.90;;;;;;5109871;28;20202;-68
2020/12/20 00:37:48;;;;;;;1.10;1.10;;;2.10;99.90;;;;;;5109938;28;20201;-68
2020/12/20 00:40:14;;;;;;;0.30;0.30;;;2.20;99.90;;;;;;5109885;28;20164;-68
2020/12/20 00:42:40;;;;;;;1.35;1.35;;;2.30;99.90;;;;;;5109715;28;20214;-68
2020/12/20 00:45:06;;;;;;;1.17;1.17;;;2.30;99.90;;;;;;5109834;28;20219;-68
2020/12/20 00:47:32;;;;;;;0.20;0.20;;;2.30;99.90;;;;;;5109742;28;20230;-68
2020/12/20 00:49:58;;;;;;;0.25;0.25;;;2.30;99.90;;;;;;5109719;28;20185;-70
2020/12/20 00:52:24;;;;;;;0.20;0.20;;;2.30;99.90;;;;;;5109833;28;20542;-68
2020/12/20 00:54:50;;;;;;;0.70;0.70;;;2.20;99.90;;;;;;5109334;28;20201;-70
2020/12/20 00:57:16;;;;;;;0.20;0.20;;;2.20;99.90;;;;;;5108249;28;20258;-69
2020/12/20 00:59:41;;;;;;;0.10;0.10;;;2.10;99.90;;;;;;5108287;28;20182;-69
2020/12/20 01:02:07;;;;;;;0.10;0.10;;;2.10;99.90;;;;;;5108350;28;20167;-69
2020/12/20 01:04:33;;;;;;;0.45;0.45;;;2.10;99.90;;;;;;5109559;28;20170;-69
2020/12/20 01:07:00;;;;;;;0.10;0.10;;;2.10;99.90;;;;;;5108793;28;20221;-69
2020/12/20 01:09:27;;;;;;;0.30;0.30;;;2.10;99.90;;;;;;5107588;28;20180;-69
2020/12/20 01:11:57;;;;;;;1.95;0.98;;;2.10;99.90;;;;;;5109480;28;20175;-69
2020/12/20 01:14:23;;;;;;;1.00;1.00;;;2.00;99.90;;;;;;5107988;28;20195;-68
2020/12/20 01:16:49;;;;;;;0.20;0.20;;;2.10;99.90;;;;;;5109446;28;20203;-69
2020/12/20 01:19:15;;;;;;;0.52;0.52;;;2.10;99.90;;;;;;5109792;28;20521;-68
2020/12/20 01:21:41;;;;;;;0.40;0.40;;;2.10;99.90;;;;;;5113793;28;20536;-70
2020/12/20 01:24:07;;;;;;;0.35;0.35;;;2.10;99.90;;;;;;5112284;28;20253;-69
2020/12/20 01:26:33;;;;;;;0.30;0.30;;;2.00;99.90;;;;;;5113526;28;20198;-69
2020/12/20 01:28:59;;;;;;;0.30;0.30;;;2.00;99.90;;;;;;5112279;28;20643;-68
2020/12/20 01:31:25;;;;;;;0.10;0.10;;;2.00;99.90;;;;;;5113495;28;20192;-69
2020/12/20 01:33:51;;;;;;;0.30;0.30;;;2.00;99.90;;;;;;5111985;28;20195;-69
2020/12/20 01:36:17;;;;;;;1.23;1.15;;;2.00;99.90;;;;;;5111713;28;20193;-69
2020/12/20 01:38:44;;;;;;;0.30;0.30;;;1.90;99.90;;;;;;5113283;28;20178;-68
2020/12/20 01:41:10;;;;;;;0.85;0.85;;;1.90;99.90;;;;;;5111642;28;20222;-68
2020/12/20 01:43:47;;;;;;;0.20;0.20;;;2.00;99.90;;;;;;5113177;28;20162;-68
2020/12/20 01:46:19;;;;;;;0.20;0.20;;;2.00;99.90;;;;;;5113129;28;20162;-69
2020/12/20 01:48:46;;;;;;;0.10;0.10;;;1.90;99.90;;;;;;5113160;28;20164;-69
2020/12/20 01:51:12;;;;;;;0.75;0.75;;;2.00;99.90;;;;;;5113036;28;20217;-69
2020/12/20 01:53:40;;;;;;;0.40;0.40;;;2.00;99.90;;;;;;5111902;28;20559;-69
2020/12/20 01:56:06;;;;;;;0.30;0.30;;;2.00;99.90;;;;;;5111432;28;20538;-67
2020/12/20 01:58:36;;;;;;;0.50;0.50;;;2.00;99.90;;;;;;5111572;28;20199;-69
2020/12/20 02:01:04;;;;;;;0.38;0.38;;;1.90;99.90;;;;;;5111626;28;20167;-69
2020/12/20 02:03:32;;;;;;;0.20;0.20;;;1.80;99.90;;;;;;5112911;28;20223;-69
2020/12/20 02:05:57;;;;;;;0.10;0.10;;;1.80;99.90;;;;;;5112813;28;20162;-69
2020/12/20 02:08:25;;;;;;;0.43;0.43;;;1.90;99.90;;;;;;5111454;28;20198;-69
2020/12/20 02:11:11;;;;;;;0.73;0.73;;;1.90;99.90;;;;;;5112778;28;20159;-69
2020/12/20 02:13:48;;;;;;;0.57;0.57;;;1.90;99.90;;;;;;5112618;28;20190;-69
2020/12/20 02:16:18;;;;;;;0.20;0.20;;;1.90;99.90;;;;;;5110018;28;20179;-68
2020/12/20 02:18:44;;;;;;;0.17;0.17;;;1.90;99.90;;;;;;5112583;28;20183;-69
2020/12/20 02:21:12;;;;;;;0.98;0.98;;;1.90;99.90;;;;;;5112363;28;20248;-68
2020/12/20 02:23:48;;;;;;;0.75;0.75;;;2.00;99.90;;;;;;5111199;28;20167;-69
2020/12/20 02:26:18;;;;;;;0.20;0.20;;;2.10;99.90;;;;;;5112393;28;20163;-69
2020/12/20 02:28:55;;;;;;;0.57;0.57;;;2.20;99.90;;;;;;5112426;28;20152;-69
2020/12/20 02:31:23;;;;;;;0.15;0.15;;;2.20;99.90;;;;;;5110975;28;20222;-69
2020/12/20 02:33:49;;;;;;;0.45;0.45;;;2.30;99.90;;;;;;5112259;28;20190;-69
2020/12/20 02:36:15;;;;;;;0.10;0.10;;;2.30;99.90;;;;;;5112400;28;20159;-68
2020/12/20 02:38:42;;;;;;;2.30;1.35;;;2.20;99.90;;;;;;5112270;28;20164;-69
2020/12/20 02:41:08;;;;;;;1.10;1.10;;;2.30;99.90;;;;;;5110628;28;20305;-69
2020/12/20 02:43:34;;;;;;;0.50;0.50;;;2.30;99.90;;;;;;5112164;28;20163;-69
2020/12/20 02:46:00;;;;;;;0.75;0.75;;;2.30;99.90;;;;;;5110919;28;20607;-69
2020/12/20 02:48:26;;;;;;;0.20;0.20;;;2.30;99.90;;;;;;5112113;28;20202;-68
2020/12/20 02:50:52;;;;;;;0.90;0.90;;;2.30;99.90;;;;;;5111880;28;20160;-69
2020/12/20 02:53:18;;;;;;;0.90;0.90;;;2.40;99.90;;;;;;5111878;28;20160;-69
2020/12/20 02:55:44;;;;;;;0.50;0.50;;;2.40;99.90;;;;;;5111879;28;20182;-69
2020/12/20 02:58:10;;;;;;;0.70;0.70;;;2.30;99.90;;;;;;5111986;28;20187;-69
2020/12/20 03:00:38;;;;;;;0.10;0.10;;;2.40;99.90;;;;;;5111819;28;20156;-68
2020/12/20 03:03:05;;;;;;;0.20;0.20;;;2.30;99.90;;;;;;5111739;28;20187;-69
2020/12/20 03:05:31;;;;;;;0.57;0.57;;;2.30;99.90;;;;;;5111747;28;20344;-69
2020/12/20 03:07:57;;;;;;;0.20;0.20;;;2.30;99.90;;;;;;5111653;28;20158;-68
2020/12/20 03:10:23;;;;;;;1.23;1.20;;;2.40;99.90;;;;;;5110250;28;20176;-69
2020/12/20 03:12:49;;;;;;;0.95;0.95;;;2.30;99.90;;;;;;5111480;28;20278;-68
2020/12/20 03:15:15;;;;;;;0.20;0.20;;;2.30;99.90;;;;;;5111370;28;20187;-69
2020/12/20 03:17:41;;;;;;;0.55;0.55;;;2.30;99.90;;;;;;5111479;28;20163;-68
2020/12/20 03:20:07;;;;;;;0.10;0.10;;;2.30;99.90;;;;;;5110156;28;20554;-68
2020/12/20 03:22:33;;;;;;;0.17;0.17;;;2.20;99.90;;;;;;5111295;28;20197;-69
2020/12/20 03:24:59;;;;;;;2.55;2.42;;;2.20;99.90;;;;;;5111279;28;20163;-69
2020/12/20 03:27:25;;;;;;;0.63;0.63;;;2.20;99.90;;;;;;5111465;28;20163;-69
2020/12/20 03:29:51;;;;;;;0.47;0.47;;;2.00;99.90;;;;;;5109871;28;20175;-68
2020/12/20 03:32:17;;;;;;;1.08;1.08;;;1.90;99.90;;;;;;5111146;28;20215;-69
2020/12/20 03:34:43;;;;;;;0.40;0.40;;;1.90;99.90;;;;;;5111030;28;20191;-69
2020/12/20 03:37:09;;;;;;;0.47;0.47;;;1.80;99.90;;;;;;5111037;28;20159;-69
2020/12/20 03:39:34;;;;;;;0.20;0.20;;;1.80;99.90;;;;;;5110594;28;20156;-69
2020/12/20 03:42:00;;;;;;;0.10;0.10;;;1.70;99.90;;;;;;5110116;28;20222;-68
2020/12/20 03:44:26;;;;;;;0.80;0.80;;;1.70;99.90;;;;;;5110818;28;20162;-68
2020/12/20 03:46:52;;;;;;;0.13;0.13;;;1.70;99.90;;;;;;5110937;28;20160;-68
2020/12/20 03:49:18;;;;;;;0.10;0.10;;;1.80;99.90;;;;;;5110876;28;20159;-68
2020/12/20 03:51:44;;;;;;;0.85;0.82;;;1.90;99.90;;;;;;5110475;28;20201;-68
2020/12/20 03:54:10;;;;;;;0.52;0.52;;;2.00;99.90;;;;;;5110628;28;20195;-69
2020/12/20 03:56:36;;;;;;;0.30;0.30;;;2.00;99.90;;;;;;5110693;28;20655;-69
2020/12/20 03:59:02;;;;;;;0.10;0.10;;;2.00;99.90;;;;;;5110586;28;20160;-69
2020/12/20 04:01:28;;;;;;;0.20;0.20;;;2.10;99.90;;;;;;5109182;28;20231;-69
2020/12/20 04:03:54;;;;;;;0.28;0.28;;;2.10;99.90;;;;;;5110623;28;20182;-69
2020/12/20 04:06:20;;;;;;;1.70;1.60;;;2.10;99.90;;;;;;5110514;28;20160;-69
2020/12/20 04:08:46;;;;;;;0.20;0.20;;;2.20;99.90;;;;;;5110404;28;20505;-69
2020/12/20 04:11:12;;;;;;;0.10;0.10;;;2.20;99.90;;;;;;5110299;28;20191;-69
2020/12/20 04:13:39;;;;;;;1.25;1.00;;;2.20;99.90;;;;;;5109015;28;20220;-68
2020/12/20 04:16:06;;;;;;;0.28;0.28;;;2.20;99.90;;;;;;5110401;28;20152;-69
2020/12/20 04:18:32;;;;;;;0.40;0.40;;;2.20;99.90;;;;;;5110378;28;20156;-69
2020/12/20 04:20:58;;;;;;;0.57;0.57;;;2.20;99.90;;;;;;5108889;28;20219;-69
2020/12/20 04:23:24;;;;;;;0.10;0.10;;;2.10;99.90;;;;;;5110131;28;20167;-68
2020/12/20 04:25:50;;;;;;;0.63;0.63;;;2.00;99.90;;;;;;5110115;28;20195;-68
2020/12/20 04:28:16;;;;;;;0.13;0.13;;;1.90;99.90;;;;;;5108911;28;20167;-68
2020/12/20 04:30:42;;;;;;;1.33;1.25;;;2.00;99.90;;;;;;5109979;28;20159;-69
2020/12/20 04:33:08;;;;;;;0.50;0.50;;;1.90;99.90;;;;;;5110091;28;20171;-68
2020/12/20 04:35:34;;;;;;;1.00;1.00;;;2.00;99.90;;;;;;5109891;28;20183;-69
2020/12/20 04:38:01;;;;;;;0.85;0.85;;;2.00;99.90;;;;;;5109967;28;20211;-68
2020/12/20 04:40:28;;;;;;;0.30;0.30;;;2.10;99.90;;;;;;5110046;28;20156;-69
2020/12/20 04:43:22;;;;;;;1.50;1.45;;;2.20;99.90;;;;;;5109623;28;20246;-69
2020/12/20 04:45:52;;;;;;;0.20;0.20;;;2.20;99.90;;;;;;5107583;28;20186;-69
2020/12/20 04:48:20;;;;;;;0.30;0.30;;;2.10;99.90;;;;;;5109602;28;20159;-69
2020/12/20 04:50:47;;;;;;;1.20;1.10;;;2.20;99.90;;;;;;5109678;28;20152;-69
2020/12/20 04:53:14;;;;;;;0.93;0.93;;;2.20;99.90;;;;;;5109693;28;20159;-68
2020/12/20 04:55:40;;;;;;;0.10;0.10;;;2.20;99.90;;;;;;5108778;28;20163;-69
2020/12/20 04:58:06;;;;;;;0.85;0.85;;;2.20;99.90;;;;;;5108391;28;20178;-69
2020/12/20 05:00:32;;;;;;;0.47;0.47;;;2.20;99.90;;;;;;5109638;28;20159;-69
2020/12/20 05:02:58;;;;;;;0.47;0.47;;;2.30;99.90;;;;;;5109603;28;20198;-69
2020/12/20 05:05:24;;;;;;;0.55;0.55;;;2.20;99.90;;;;;;5109586;28;20567;-69
2020/12/20 05:07:52;;;;;;;2.00;1.85;;;2.30;99.90;;;;;;5109455;28;20156;-69
2020/12/20 05:10:18;;;;;;;0.47;0.47;;;2.30;99.90;;;;;;5109308;28;20200;-69
2020/12/20 05:12:43;;;;;;;0.10;0.10;;;2.30;99.90;;;;;;5109376;28;20660;-69
2020/12/20 05:15:22;;;;;;;1.27;1.27;;;2.30;99.90;;;;;;5109245;28;20195;-69
2020/12/20 05:17:47;;;;;;;0.65;0.65;;;2.30;99.90;;;;;;5108323;28;20167;-69
2020/12/20 05:20:33;;;;;;;1.27;1.23;;;2.30;99.90;;;;;;5109480;28;20211;-69
2020/12/20 05:23:00;;;;;;;0.20;0.20;;;2.40;99.90;;;;;;5109357;28;20167;-69
2020/12/20 05:25:28;;;;;;;0.20;0.20;;;2.30;99.90;;;;;;5109377;28;20174;-69
2020/12/20 05:28:09;;;;;;;1.65;0.77;;;2.30;99.90;;;;;;5109294;28;20212;-69
2020/12/20 05:30:36;;;;;;;0.15;0.15;;;2.30;99.90;;;;;;5109282;28;20164;-69
2020/12/20 05:33:03;;;;;;;0.50;0.50;;;2.30;99.90;;;;;;5109315;28;20166;-69
2020/12/20 05:35:29;;;;;;;0.30;0.30;;;2.30;99.90;;;;;;5107956;28;20194;-69
2020/12/20 05:37:56;;;;;;;1.88;1.77;;;2.30;99.90;;;;;;5109358;28;20156;-69
2020/12/20 05:40:29;;;;;;;0.20;0.20;;;2.20;99.90;;;;;;5109352;28;20156;-68
2020/12/20 05:42:59;;;;;;;0.35;0.35;;;2.20;99.90;;;;;;5109021;28;20640;-69
2020/12/20 05:45:28;;;;;;;0.13;0.13;;;2.20;99.90;;;;;;5109248;28;20155;-68
2020/12/20 05:47:55;;;;;;;0.30;0.30;;;2.20;99.90;;;;;;5107752;28;20227;-69
2020/12/20 05:50:21;;;;;;;0.15;0.15;;;2.20;99.90;;;;;;5109172;28;20183;-69
2020/12/20 05:53:01;;;;;;;1.08;1.08;;;2.20;99.90;;;;;;5107824;28;20206;-68
2020/12/20 05:55:39;;;;;;;0.43;0.43;;;2.20;99.90;;;;;;5108976;28;20207;-68
2020/12/20 05:58:10;;;;;;;0.10;0.10;;;2.10;99.90;;;;;;5109076;28;20159;-69
2020/12/20 06:00:37;;;;;;;0.17;0.17;;;2.10;99.90;;;;;;5107543;28;20164;-69
2020/12/20 06:03:05;;;;;;;0.40;0.40;;;2.10;99.90;;;;;;5107789;28;20163;-69
2020/12/20 06:05:36;;;;;;;0.85;0.85;;;2.20;99.90;;;;;;5109682;28;20227;-69
2020/12/20 06:08:05;;;;;;;0.20;0.20;;;2.10;99.90;;;;;;5111655;28;20195;-67
2020/12/20 06:10:36;;;;;;;0.68;0.68;;;2.10;99.90;;;;;;5112773;28;20519;-68
2020/12/20 06:13:08;;;;;;;0.20;0.20;;;2.20;99.90;;;;;;5112653;28;20168;-69
2020/12/20 06:15:37;;;;;;;0.40;0.40;;;2.20;99.90;;;;;;5112702;28;20194;-68
2020/12/20 06:18:08;;;;;;;0.73;0.73;;;2.20;99.90;;;;;;5112734;28;20238;-68
2020/12/20 06:20:48;;;;;;;0.20;0.20;;;2.20;99.90;;;;;;5112568;28;20152;-68
2020/12/20 06:23:18;;;;;;;0.32;0.32;;;2.20;99.90;;;;;;5112287;28;20152;-68
2020/12/20 06:25:45;;;;;;;0.10;0.10;;;2.20;99.90;;;;;;5112494;28;20164;-68
2020/12/20 06:28:20;;;;;;;1.02;1.02;;;2.20;99.90;;;;;;5111193;28;20167;-68
2020/12/20 06:30:47;;;;;;;0.40;0.40;;;2.20;99.90;;;;;;5112306;28;20194;-68
2020/12/20 06:33:30;;;;;;;1.05;1.05;;;2.20;99.90;;;;;;5111076;28;20163;-68
2020/12/20 06:35:56;;;;;;;10.60;1.38;;;2.20;99.90;;;;;;5112459;28;20216;-68
2020/12/20 06:38:25;;;;;;;0.43;0.43;;;2.10;99.90;;;;;;5110875;28;20517;-68
2020/12/20 06:40:52;;;;;;;0.57;0.57;;;2.10;99.90;;;;;;5111913;28;20189;-69
2020/12/20 06:43:29;;;;;;;0.25;0.25;;;2.10;99.90;;;;;;5112166;28;20244;-68
2020/12/20 06:45:56;;;;;;;0.30;0.30;;;2.10;99.90;;;;;;5111993;28;20185;-68
2020/12/20 06:48:39;;;;;;;0.73;0.73;;;2.10;99.90;;;;;;5111900;28;20163;-68
2020/12/20 06:51:07;;;;;;;0.20;0.20;;;2.10;99.90;;;;;;5111801;28;20278;-68
2020/12/20 06:53:53;;;;;;;0.20;0.20;;;2.10;99.90;;;;;;5110638;28;20156;-68
2020/12/20 06:56:23;;;;;;;0.82;0.82;;;2.10;99.90;;;;;;5111918;28;20148;-68
2020/12/20 06:58:51;;;;;;;0.10;0.10;;;2.10;99.90;;;;;;5111660;28;20167;-68
2020/12/20 07:01:40;;;;;;;0.30;0.30;;;2.10;99.90;;;;;;5110375;28;20262;-68
2020/12/20 07:04:14;;;;;;;0.60;0.60;;;2.20;99.90;;;;;;5110286;28;20223;-68
2020/12/20 07:06:40;;;;;;;0.45;0.45;;;2.20;99.90;;;;;;5110307;28;20160;-68
2020/12/20 07:09:07;;;;;;;0.40;0.40;;;2.10;99.90;;;;;;5111606;28;20504;-68
2020/12/20 07:11:49;;;;;;;0.73;0.73;;;2.10;99.90;;;;;;5111429;28;20195;-68
2020/12/20 07:14:21;;;;;;;1.05;1.05;;;2.20;99.90;;;;;;5111411;28;20248;-68
2020/12/20 07:16:47;;;;;;;1.10;1.10;;;2.20;99.90;;;;;;5110806;28;20172;-68
2020/12/20 07:19:21;;;;;;;0.10;0.10;;;2.10;99.90;;;;;;5111081;28;20198;-68
2020/12/20 07:21:59;;;;;;;1.15;1.15;;;2.20;99.90;;;;;;5111195;28;20210;-68
2020/12/20 07:24:30;;;;;;;0.20;0.20;;;2.10;99.90;;;;;;5111143;28;20163;-67
2020/12/20 07:27:01;;;;;;;0.20;0.20;;;2.10;99.90;;;;;;5111096;28;20163;-68
2020/12/20 07:29:33;;;;;;;0.60;0.60;;;2.10;99.90;;;;;;5111180;28;20159;-68
2020/12/20 07:32:01;;;;;;;0.20;0.20;;;2.10;99.90;;;;;;5111214;28;20292;-68
2020/12/20 07:34:28;;;;;;;0.40;0.40;;;2.00;99.90;;;;;;5109671;28;20195;-68
2020/12/20 07:36:55;;;;;;;0.10;0.10;;;2.00;99.90;;;;;;5111032;28;20148;-68
2020/12/20 07:39:21;;;;;;;0.65;0.65;;;2.00;99.90;;;;;;5111119;28;20175;-68
2020/12/20 07:41:48;;;;;;;0.40;0.40;;;1.90;99.90;;;;;;5110640;28;20221;-68
2020/12/20 07:44:14;;;;;;;1.05;1.05;;;1.80;99.90;;;;;;5111008;28;20167;-68
2020/12/20 07:46:40;;;;;;;1.00;0.50;;;1.80;99.90;;;;;;5110916;28;20189;-68
2020/12/20 07:49:14;;;;;;;0.20;0.20;;;1.80;99.90;;;;;;5109369;28;20182;-68
2020/12/20 07:51:41;;;;;;;1.48;1.38;;;1.90;99.90;;;;;;5109362;28;20221;-68
2020/12/20 07:54:09;;;;;;;0.28;0.28;;;2.00;99.90;;;;;;5110352;28;20217;-68
2020/12/20 07:56:38;;;;;;;0.30;0.30;;;2.00;99.90;;;;;;5109344;28;20216;-68
2020/12/20 07:59:05;;;;;;;0.20;0.20;;;2.10;99.90;;;;;;5110607;28;20569;-68
2020/12/20 08:01:32;;;;;;;0.10;0.10;;;2.20;99.90;;;;;;5109146;28;20191;-68
2020/12/20 08:04:11;;;;;;;0.10;0.10;;;2.20;99.90;;;;;;5110500;28;20151;-68
2020/12/20 08:06:42;;;;;;;0.10;0.10;;;2.20;99.90;;;;;;5110371;28;20156;-68
2020/12/20 08:09:13;;;;;;;0.57;0.57;;;2.10;99.90;;;;;;5109165;28;20179;-68
2020/12/20 08:11:39;;;;;;;0.30;0.30;;;2.10;99.90;;;;;;5110274;28;20214;-68
2020/12/20 08:14:09;;;;;;;0.68;0.68;;;2.10;99.90;;;;;;5110200;28;20211;-68
2020/12/20 08:16:37;;;;;;;0.32;0.32;;;2.10;99.90;;;;;;5110243;28;20156;-68
2020/12/20 08:19:13;;;;;;;2.25;2.15;;;2.10;99.90;;;;;;5110146;28;20151;-68
2020/12/20 08:21:50;;;;;;;0.10;0.10;;;2.20;99.90;;;;;;5110159;28;20214;-68
2020/12/20 08:24:17;;;;;;;0.22;0.22;;;2.20;99.90;;;;;;5110128;28;20162;-68
2020/12/20 08:26:44;;;;;;;0.57;0.57;;;2.20;99.90;;;;;;5110168;28;20198;-68
2020/12/20 08:29:16;;;;;;;1.10;1.05;;;2.10;99.90;;;;;;5108700;28;20175;-68
2020/12/20 08:31:43;;;;;;;0.20;0.20;;;2.20;99.90;;;;;;5109606;28;20187;-68
2020/12/20 08:34:23;;;;;;;0.13;0.13;;;2.30;99.90;;;;;;5108583;28;20206;-68
2020/12/20 08:36:54;;;;;;;0.60;0.60;;;2.30;99.90;;;;;;5108607;28;20163;-68
2020/12/20 08:39:24;;;;;;;0.93;0.93;;;2.30;99.90;;;;;;5108660;28;20159;-68
2020/12/20 08:42:10;;;;;;;0.73;0.73;;;2.40;99.90;;;;;;5109594;28;20292;-68
2020/12/20 08:44:37;;;;;;;0.20;0.20;;;2.50;99.90;;;;;;5109618;28;20160;-68
2020/12/20 08:47:07;;;;;;;0.20;0.20;;;2.40;99.90;;;;;;5109620;28;20163;-68
2020/12/20 08:49:33;;;;;;;0.17;0.17;;;2.40;99.90;;;;;;5109622;28;20155;-68
2020/12/20 08:52:07;;;;;;;0.40;0.40;;;2.50;99.90;;;;;;5108242;28;20533;-68
2020/12/20 08:54:34;;;;;;;0.10;0.10;;;2.50;99.90;;;;;;5109646;28;20209;-68
2020/12/20 08:57:02;;;;;;;0.43;0.43;;;2.40;99.90;;;;;;5108321;28;20159;-68
2020/12/20 08:59:42;;;;;;;0.17;0.17;;;2.40;99.90;;;;;;5109628;28;20152;-68
2020/12/20 09:02:23;;;;;;;0.25;0.25;;;2.40;99.90;;;;;;5108295;28;20197;-68
2020/12/20 09:05:20;;;;;;;0.30;0.30;;;2.40;99.90;;;;;;5109531;28;20159;-68
2020/12/20 09:07:49;;;;;;;1.95;1.88;;;2.50;99.90;;;;;;5107492;28;20217;-68
2020/12/20 09:10:18;;;;;;;0.15;0.15;;;2.60;99.90;;;;;;5107329;28;20183;-68
2020/12/20 09:12:48;;;;;;;0.10;0.10;;;2.70;99.90;;;;;;5107114;28;20191;-68
2020/12/20 09:15:14;;;;;;;0.17;0.17;;;2.70;99.90;;;;;;5089363;28;20195;-68
2020/12/20 09:17:45;;;;;;;0.30;0.30;;;2.80;99.90;;;;;;5089459;28;20179;-68
2020/12/20 09:20:14;;;;;;;0.55;0.55;;;2.70;99.90;;;;;;5089950;28;20175;-68
2020/12/20 09:22:47;;;;;;;0.20;0.20;;;2.70;99.90;;;;;;5106193;28;20198;-68
2020/12/20 09:25:34;;;;;;;0.20;0.20;;;2.80;99.90;;;;;;5106428;28;20202;-68
2020/12/20 09:28:03;;;;;;;0.30;0.30;;;2.90;99.90;;;;;;5107217;28;20171;-67
2020/12/20 09:31:11;;;;;;;0.10;0.10;;;3.00;99.90;;;;;;5106877;28;20232;-67
2020/12/20 09:33:37;;;;;;;0.32;0.32;;;3.00;99.90;;;;;;5026944;28;20182;-68
2020/12/20 09:36:11;;;;;;;0.40;0.40;;;3.00;99.90;;;;;;5026660;28;20280;-69
2020/12/20 09:38:40;;;;;;;0.20;0.20;;;3.10;99.90;;;;;;5027210;28;20344;-69
2020/12/20 09:41:09;;;;;;;0.22;0.22;;;2.90;99.90;;;;;;5028469;28;20205;-69
2020/12/20 09:43:35;;;;;;;0.10;0.10;;;2.80;99.90;;;;;;5018918;28;20242;-69
2020/12/20 09:46:03;;;;;;;0.20;0.20;;;2.90;99.90;;;;;;5011094;28;20198;-68
2020/12/20 09:48:30;;;;;;;0.10;0.10;;;2.70;99.90;;;;;;5011116;28;20186;-68
2020/12/20 09:50:58;;;;;;;0.10;0.10;;;2.70;99.90;;;;;;5028532;28;20204;-69
2020/12/20 09:53:23;;;;;;;0.10;0.10;;;2.70;99.90;;;;;;5030496;28;20172;-68
2020/12/20 09:55:50;;;;;;;0.38;0.38;;;2.90;99.90;;;;;;5030198;28;20193;-69
2020/12/20 09:58:16;;;;;;;0.20;0.20;;;3.00;99.90;;;;;;5030137;28;20206;-68
2020/12/20 10:00:43;;;;;;;0.13;0.13;;;3.00;99.90;;;;;;5029429;28;20224;-68
2020/12/20 10:03:11;;;;;;;1.25;0.57;;;3.00;99.90;;;;;;5028888;28;20228;-69
2020/12/20 10:05:39;;;;;;;0.30;0.30;;;2.90;99.90;;;;;;5028186;28;20300;-68
2020/12/20 10:08:06;;;;;;;0.47;0.47;;;3.10;99.90;;;;;;5093569;28;20225;-69
2020/12/20 10:10:32;;;;;;;0.20;0.20;;;3.10;99.90;;;;;;5110631;28;20264;-69
2020/12/20 10:12:58;;;;;;;0.10;0.10;;;3.10;99.90;;;;;;5110638;28;20195;-69
2020/12/20 10:15:25;;;;;;;0.20;0.20;;;3.20;99.90;;;;;;5112512;28;20195;-69
2020/12/20 10:17:53;;;;;;;0.10;0.10;;;3.20;99.90;;;;;;5110763;28;20208;-69
2020/12/20 10:20:19;;;;;;;0.47;0.47;;;3.20;99.90;;;;;;5112602;28;20171;-69
2020/12/20 10:22:45;;;;;;;0.10;0.10;;;3.20;99.90;;;;;;5112355;28;20608;-68
2020/12/20 10:25:11;;;;;;;0.10;0.10;;;3.10;99.90;;;;;;5111849;28;20568;-69
2020/12/20 10:27:37;;;;;;;0.50;0.50;;;3.10;99.90;;;;;;5110966;28;20167;-69
2020/12/20 10:30:03;;;;;;;0.10;0.10;;;3.10;99.90;;;;;;5112418;28;20160;-69
2020/12/20 10:32:29;;;;;;;0.15;0.15;;;3.00;99.90;;;;;;5112152;28;20168;-68
2020/12/20 10:34:55;;;;;;;0.10;0.10;;;3.00;99.90;;;;;;5112108;28;20205;-68
2020/12/20 10:37:21;;;;;;;0.10;0.10;;;2.90;99.90;;;;;;5112118;28;20175;-69
2020/12/20 10:39:47;;;;;;;0.10;0.10;;;2.80;99.90;;;;;;5112094;28;20180;-68
2020/12/20 10:42:16;;;;;;;0.10;0.10;;;2.90;99.90;;;;;;5111777;28;20651;-68
2020/12/20 10:44:43;;;;;;;0.10;0.10;;;3.00;99.90;;;;;;5111879;28;20205;-68
2020/12/20 10:47:09;;;;;;;0.10;0.10;;;3.00;99.90;;;;;;5111967;28;20247;-68
2020/12/20 10:49:35;;;;;;;0.15;0.15;;;3.00;99.90;;;;;;5104987;28;20206;-68
2020/12/20 10:52:01;;;;;;;0.10;0.10;;;3.10;99.90;;;;;;5093823;28;20245;-69
2020/12/20 10:54:30;;;;;;;0.10;0.10;;;3.10;99.90;;;;;;5100793;28;20195;-69
2020/12/20 10:57:00;;;;;;;0.10;0.10;;;3.00;99.90;;;;;;5111727;28;20156;-69
2020/12/20 10:59:27;;;;;;;0.10;0.10;;;3.10;99.90;;;;;;5093311;28;20187;-69
2020/12/20 11:01:54;;;;;;;0.40;0.40;;;3.10;99.90;;;;;;5090023;28;20160;-69
2020/12/20 11:04:21;;;;;;;0.10;0.10;;;2.90;99.90;;;;;;5091284;28;20164;-69
2020/12/20 11:06:47;;;;;;;0.15;0.15;;;2.70;99.90;;;;;;5096940;28;20183;-69
2020/12/20 11:09:13;;;;;;;0.65;0.65;;;2.90;99.90;;;;;;5106411;28;20172;-68
2020/12/20 11:11:39;;;;;;;0.47;0.47;;;3.00;99.90;;;;;;5101408;28;20573;-68
2020/12/20 11:14:04;;;;;;;0.13;0.13;;;3.00;99.90;;;;;;5096996;28;20271;-69
2020/12/20 11:16:30;;;;;;;0.57;0.50;;;3.00;99.90;;;;;;5100263;28;20182;-68
2020/12/20 11:18:56;;;;;;;0.25;0.25;;;3.00;99.90;;;;;;5111243;28;20166;-67
2020/12/20 11:21:22;;;;;;;0.20;0.20;;;3.00;99.90;;;;;;5111233;28;20183;-68
2020/12/20 11:23:49;;;;;;;0.10;0.10;;;3.10;99.90;;;;;;5109696;28;20195;-68
2020/12/20 11:26:16;;;;;;;0.13;0.13;;;3.00;99.90;;;;;;5111035;28;20195;-68
2020/12/20 11:28:44;;;;;;;0.10;0.10;;;3.00;99.90;;;;;;5111006;28;20183;-68
2020/12/20 11:31:11;;;;;;;0.10;0.10;;;3.00;99.90;;;;;;5110803;28;20163;-67
2020/12/20 11:33:37;;;;;;;0.20;0.20;;;2.90;99.90;;;;;;5111249;28;20151;-68
2020/12/20 11:36:05;;;;;;;0.50;0.50;;;2.80;99.90;;;;;;5110861;28;20187;-67
2020/12/20 11:38:31;;;;;;;0.13;0.13;;;2.80;99.90;;;;;;5110967;28;20653;-68
2020/12/20 11:40:58;;;;;;;0.10;0.10;;;2.70;99.90;;;;;;5110838;28;20612;-68
2020/12/20 11:43:24;;;;;;;0.90;0.70;;;2.70;99.90;;;;;;5111045;28;20187;-68
2020/12/20 11:45:50;;;;;;;0.10;0.10;;;2.70;99.90;;;;;;5110726;28;20187;-68
2020/12/20 11:48:16;;;;;;;0.10;0.10;;;2.80;99.90;;;;;;5110839;28;20170;-68
2020/12/20 11:50:42;;;;;;;0.30;0.30;;;2.80;99.90;;;;;;5110794;28;20183;-68
2020/12/20 11:53:08;;;;;;;0.20;0.20;;;2.80;99.90;;;;;;5109287;28;20197;-68
2020/12/20 11:55:35;;;;;;;0.10;0.10;;;2.70;99.90;;;;;;5109005;28;20215;-68
2020/12/20 11:58:01;;;;;;;0.30;0.30;;;2.60;99.90;;;;;;5110603;28;20187;-68
2020/12/20 12:00:28;;;;;;;0.15;0.15;;;2.60;99.90;;;;;;5110366;28;20175;-68
2020/12/20 12:02:55;;;;;;;0.10;0.10;;;2.60;99.90;;;;;;5108918;28;20171;-68
2020/12/20 12:05:20;;;;;;;0.17;0.17;;;2.60;99.90;;;;;;5110092;28;20193;-68
2020/12/20 12:07:47;;;;;;;0.20;0.20;;;2.60;99.90;;;;;;5109069;28;20175;-68
2020/12/20 12:10:12;;;;;;;0.10;0.10;;;2.60;99.90;;;;;;5110426;28;20167;-68
2020/12/20 12:12:39;;;;;;;0.47;0.47;;;2.70;99.90;;;;;;5110198;28;20176;-68
2020/12/20 12:15:05;;;;;;;0.45;0.45;;;2.60;99.90;;;;;;5110326;28;20199;-68
2020/12/20 12:17:30;;;;;;;0.30;0.30;;;2.80;99.90;;;;;;5110293;28;20194;-68
2020/12/20 12:19:56;;;;;;;1.02;1.00;;;2.80;99.90;;;;;;5110182;28;20163;-68
2020/12/20 12:22:23;;;;;;;0.30;0.30;;;2.80;99.90;;;;;;5108930;28;20175;-68
2020/12/20 12:24:49;;;;;;;0.10;0.10;;;2.80;99.90;;;;;;5110048;28;20163;-68
2020/12/20 12:27:14;;;;;;;0.25;0.25;;;2.90;99.90;;;;;;5110142;28;20185;-68
2020/12/20 12:29:40;;;;;;;0.30;0.30;;;2.70;99.90;;;;;;5108692;28;20171;-68
2020/12/20 12:32:06;;;;;;;0.10;0.10;;;2.60;99.90;;;;;;5109828;28;20156;-68
2020/12/20 12:34:32;;;;;;;0.65;0.65;;;2.70;99.90;;;;;;5109847;28;20222;-68
2020/12/20 12:36:58;;;;;;;0.28;0.28;;;2.80;99.90;;;;;;5109912;28;20629;-68
2020/12/20 12:39:23;;;;;;;0.90;0.90;;;2.90;99.90;;;;;;5108556;28;20624;-68
2020/12/20 12:41:49;;;;;;;0.10;0.10;;;2.90;99.90;;;;;;5108135;28;20226;-68
2020/12/20 12:44:16;;;;;;;0.10;0.10;;;2.90;99.90;;;;;;5109688;28;20171;-68
2020/12/20 12:46:46;;;;;;;0.13;0.13;;;2.90;99.90;;;;;;5109763;28;20218;-68
2020/12/20 12:49:12;;;;;;;0.10;0.10;;;2.90;99.90;;;;;;5109708;28;20602;-68
2020/12/20 12:51:38;;;;;;;0.13;0.13;;;3.00;99.90;;;;;;5109759;28;20160;-68
2020/12/20 12:54:04;;;;;;;0.10;0.10;;;2.80;99.90;;;;;;5109446;28;20217;-68
2020/12/20 12:56:29;;;;;;;0.30;0.30;;;2.80;99.90;;;;;;5109609;28;20250;-68
2020/12/20 12:58:55;;;;;;;0.32;0.32;;;2.90;99.90;;;;;;5109551;28;20177;-68
2020/12/20 13:01:30;;;;;;;0.35;0.35;;;2.90;99.90;;;;;;5109642;28;20155;-68
2020/12/20 13:03:55;;;;;;;0.10;0.10;;;2.80;99.90;;;;;;5108121;28;20166;-68